Oita Airport
RJFO : now visible

Airfield :











YOU CAN JOIN US ON...

 
LOGIN :

Register | Disclaimer

   EN    FR    IT 

 









Legend :    VFR   Marginal VFR   IFR   Intensive IFR   Very Intensive IFR
Visi :
Ceiling :
>= 8 km
>= 3000ft
5 to 8 km
1000 to 3000 ft
1500m to 5 km
500 to 1000 ft
800 to 1500m
200 to 500 ft
< 800m
< 200 ft
Symbols :   Thunderstorms  Fog  Heavy snow  Heavy precipitations  Wind > 20 kt






- Airport Elevation : 19 ft
- IATA code : OIT


RJFO - Oita

CURRENT METAR :
  • 081000Z 32004KT 270V040 9999 FEW030 15/06 Q1015

EXPIRED METARs :
  • 080900Z 30008KT 9999 FEW030 17/06 Q1015
  • 080800Z 29009KT CAVOK 19/06 Q1014

TAF TAF RJFO
Valid from the 08 at 06:00 until the 09 at 12:00 UTC


080507Z 0806/0912 31011KT 9999 FEW030
TEMPO 0806/0809 32015G25KT
BECMG 0814/0816 26004KT
BECMG 0900/0903 31012KT
TEMPO 0906/0912 31015G25KT



MET'MAP, your aeronautical weather chart ! - Copyright ORBIFLY December 2007 - Disclaimer

ORBIFLY MET'MAP TEAM :

Programming & Development : Alexandra Zaïnal
Concept & original design : Baudouin d'Aumeries
Assistance for programming : Marc-Olivier Méhu
Technical & hardware support : Manuel Goepfert

Contact : metmap@orbifly.com




SOURCES & CREDITS :

   NOAA       Earth
Advisory